createdAt,value
2019-03-21T00:01:20.070Z,9.02
2019-03-21T00:03:50.653Z,8.90
2019-03-21T00:06:19.284Z,8.77
2019-03-21T00:08:48.451Z,8.55
2019-03-21T00:11:55.176Z,8.65
2019-03-21T00:14:29.453Z,8.58
2019-03-21T00:16:57.985Z,8.35
2019-03-21T00:19:26.553Z,8.18
2019-03-21T00:21:55.189Z,8.12
2019-03-21T00:24:23.828Z,8.03
2019-03-21T00:26:52.389Z,7.81
2019-03-21T00:29:21.003Z,7.69
2019-03-21T00:31:49.632Z,7.76
2019-03-21T00:34:18.134Z,7.64
2019-03-21T00:36:46.696Z,7.61
2019-03-21T00:39:15.190Z,7.39
2019-03-21T00:41:43.829Z,7.27
2019-03-21T00:44:18.180Z,7.24
2019-03-21T00:46:42.652Z,7.06
2019-03-21T00:49:11.293Z,7.09
2019-03-21T00:51:39.964Z,7.04
2019-03-21T00:54:08.603Z,7.09
2019-03-21T00:56:37.173Z,7.01
2019-03-21T00:59:05.823Z,7.08
2019-03-21T01:01:34.388Z,7.10
2019-03-21T01:04:02.968Z,7.06
2019-03-21T01:06:31.458Z,6.93
2019-03-21T01:09:00.123Z,6.95
2019-03-21T01:11:28.753Z,6.92
2019-03-21T01:13:57.432Z,6.82
2019-03-21T01:16:25.993Z,6.92
2019-03-21T01:18:54.676Z,6.83
2019-03-21T01:21:23.244Z,6.79
2019-03-21T01:23:51.882Z,6.81
2019-03-21T01:26:20.416Z,6.85
2019-03-21T01:28:48.950Z,6.82
2019-03-21T01:31:17.526Z,6.84
2019-03-21T01:33:46.064Z,6.69
2019-03-21T01:36:14.701Z,6.62
2019-03-21T01:38:43.236Z,6.53
2019-03-21T01:41:17.723Z,6.53
2019-03-21T01:43:46.294Z,6.33
2019-03-21T01:46:25.953Z,6.30
2019-03-21T01:48:57.580Z,6.33
2019-03-21T01:51:26.263Z,6.32
2019-03-21T01:53:55.594Z,6.30
2019-03-21T01:56:24.827Z,6.19
2019-03-21T01:58:53.433Z,6.14
2019-03-21T02:01:21.991Z,6.02
2019-03-21T02:03:50.663Z,6.08
2019-03-21T02:06:19.227Z,6.05
2019-03-21T02:08:47.907Z,6.05
2019-03-21T02:11:16.512Z,6.00
2019-03-21T02:13:45.091Z,5.94
2019-03-21T02:16:13.762Z,5.82
2019-03-21T02:18:42.381Z,5.85
2019-03-21T02:21:10.999Z,5.79
2019-03-21T02:23:39.639Z,5.81
2019-03-21T02:26:08.323Z,5.77
2019-03-21T02:28:36.993Z,5.75
2019-03-21T02:31:05.680Z,5.58
2019-03-21T02:33:42.736Z,5.69
2019-03-21T02:36:12.874Z,5.49
2019-03-21T02:38:41.486Z,5.46
2019-03-21T02:41:16.996Z,5.50
2019-03-21T02:43:45.556Z,5.32
2019-03-21T02:46:14.190Z,5.37
2019-03-21T02:48:42.749Z,5.51
2019-03-21T02:51:11.292Z,5.49
2019-03-21T02:53:39.865Z,5.46
2019-03-21T02:56:11.595Z,5.38
2019-03-21T02:58:40.083Z,5.39
2019-03-21T03:01:08.719Z,5.27
2019-03-21T03:03:37.321Z,5.34
2019-03-21T03:06:06.018Z,5.37
2019-03-21T03:08:34.596Z,5.36
2019-03-21T03:11:18.231Z,5.34
2019-03-21T03:13:49.079Z,5.32
2019-03-21T03:16:17.708Z,5.39
2019-03-21T03:18:46.337Z,5.41
2019-03-21T03:21:14.942Z,5.48
2019-03-21T03:23:43.615Z,5.54
2019-03-21T03:26:12.254Z,5.61
2019-03-21T03:28:45.574Z,5.68
2019-03-21T03:31:14.190Z,5.61
2019-03-21T03:33:42.781Z,5.59
2019-03-21T03:36:12.435Z,5.61
2019-03-21T03:38:41.104Z,5.72
2019-03-21T03:41:12.537Z,5.73
2019-03-21T03:43:41.112Z,5.69
2019-03-21T03:46:09.658Z,5.65
2019-03-21T03:48:38.341Z,5.85
2019-03-21T03:51:06.969Z,5.99
2019-03-21T03:53:35.546Z,6.13
2019-03-21T03:56:04.592Z,6.24
2019-03-21T03:58:42.098Z,6.29
2019-03-21T04:01:10.774Z,6.39
2019-03-21T04:03:39.406Z,6.46
2019-03-21T04:06:08.178Z,6.70
2019-03-21T04:08:36.866Z,6.77
2019-03-21T04:11:05.535Z,6.96
2019-03-21T04:13:34.101Z,7.00
2019-03-21T04:16:02.712Z,7.09
2019-03-21T04:18:31.198Z,6.80
2019-03-21T04:21:02.928Z,6.89
2019-03-21T04:23:31.533Z,7.19
2019-03-21T04:26:26.361Z,7.00
2019-03-21T04:28:54.917Z,7.17
2019-03-21T04:31:23.547Z,7.15
2019-03-21T04:33:54.940Z,7.19
2019-03-21T04:36:23.507Z,7.28
2019-03-21T04:38:52.126Z,7.34
2019-03-21T04:41:20.690Z,7.37
2019-03-21T04:43:49.288Z,7.43
2019-03-21T04:46:18.035Z,7.28
2019-03-21T04:48:46.647Z,7.25
2019-03-21T04:51:15.217Z,7.26
2019-03-21T04:53:43.768Z,7.25
2019-03-21T04:56:12.377Z,7.14
2019-03-21T04:58:40.880Z,7.22
2019-03-21T05:01:09.553Z,7.21
2019-03-21T05:03:38.084Z,7.36
2019-03-21T05:06:06.716Z,7.48
2019-03-21T05:08:35.330Z,7.58
2019-03-21T05:11:03.952Z,7.77
2019-03-21T05:13:32.438Z,7.80
2019-03-21T05:16:01.041Z,8.28
2019-03-21T05:18:35.598Z,8.45
2019-03-21T05:21:07.040Z,8.46
2019-03-21T05:23:35.605Z,8.36
2019-03-21T05:26:04.377Z,8.24
2019-03-21T05:28:32.986Z,8.42
2019-03-21T05:31:19.977Z,8.51
2019-03-21T05:33:48.550Z,8.65
2019-03-21T05:36:17.157Z,8.65
2019-03-21T05:38:45.751Z,8.65
2019-03-21T05:41:14.400Z,8.87
2019-03-21T05:43:58.183Z,8.90
2019-03-21T05:46:27.345Z,9.22
2019-03-21T05:48:56.494Z,9.27
2019-03-21T05:51:25.357Z,9.37
2019-03-21T05:53:54.097Z,9.31
2019-03-21T05:56:22.844Z,9.49
2019-03-21T05:58:51.563Z,9.57
2019-03-21T06:01:20.226Z,9.42
2019-03-21T06:03:55.838Z,9.60
2019-03-21T06:06:36.627Z,9.92
2019-03-21T06:09:11.102Z,10.00
2019-03-21T06:11:44.612Z,10.13
2019-03-21T06:14:13.530Z,10.23
2019-03-21T06:16:42.351Z,10.35
2019-03-21T06:19:16.532Z,10.55
2019-03-21T06:21:50.850Z,10.38
2019-03-21T06:24:40.634Z,10.50
2019-03-21T06:27:27.031Z,10.69
2019-03-21T06:29:58.870Z,10.90
2019-03-21T06:32:28.735Z,10.67
2019-03-21T06:34:57.857Z,10.69
2019-03-21T06:37:28.900Z,10.73
2019-03-21T06:40:01.690Z,11.07
2019-03-21T06:42:32.203Z,11.04
2019-03-21T06:45:01.406Z,10.77
2019-03-21T06:47:33.526Z,10.85
2019-03-21T06:50:02.892Z,10.78
2019-03-21T06:52:31.569Z,11.32
2019-03-21T06:55:01.184Z,11.47
2019-03-21T06:57:30.611Z,10.83
2019-03-21T06:59:59.696Z,10.62
2019-03-21T07:02:29.198Z,10.55
2019-03-21T07:04:58.367Z,10.44
2019-03-21T07:07:31.827Z,10.65
2019-03-21T07:10:03.102Z,10.99
2019-03-21T07:12:33.939Z,11.51
2019-03-21T07:15:08.081Z,11.66
2019-03-21T07:17:38.833Z,12.20
2019-03-21T07:20:10.368Z,13.58
2019-03-21T07:22:39.567Z,14.04
2019-03-21T07:25:13.037Z,14.24
2019-03-21T07:27:42.574Z,14.51
2019-03-21T07:30:14.055Z,14.62
2019-03-21T07:32:43.212Z,15.81
2019-03-21T07:35:14.457Z,16.15
2019-03-21T07:37:43.802Z,16.20
2019-03-21T07:40:17.800Z,16.20
2019-03-21T07:42:48.204Z,16.03
2019-03-21T07:45:17.452Z,15.39
2019-03-21T07:47:46.316Z,15.96
2019-03-21T07:50:18.478Z,16.45
2019-03-21T07:52:47.160Z,16.93
2019-03-21T07:55:15.881Z,16.84
2019-03-21T07:57:44.663Z,16.37
2019-03-21T08:00:18.130Z,17.22
2019-03-21T08:02:46.964Z,17.65
2019-03-21T08:05:15.985Z,19.10
2019-03-21T08:07:44.542Z,20.04
2019-03-21T08:10:14.198Z,19.86
2019-03-21T08:12:42.980Z,19.36
2019-03-21T08:15:15.990Z,19.41
2019-03-21T08:17:44.629Z,19.51
2019-03-21T08:20:14.739Z,18.77
2019-03-21T08:22:43.525Z,18.02
2019-03-21T08:25:13.740Z,17.92
2019-03-21T08:27:42.529Z,18.89
2019-03-21T08:30:32.478Z,20.26
2019-03-21T08:33:03.773Z,21.96
2019-03-21T08:35:32.441Z,23.16
2019-03-21T08:38:01.069Z,24.23
2019-03-21T08:40:32.584Z,24.39
2019-03-21T08:43:04.255Z,24.62
2019-03-21T08:45:32.959Z,25.32
2019-03-21T08:48:01.787Z,23.45
2019-03-21T08:50:30.583Z,24.10
2019-03-21T08:52:59.253Z,23.50
2019-03-21T08:55:27.986Z,23.94
2019-03-21T08:57:56.772Z,25.23
2019-03-21T09:00:33.725Z,24.90
2019-03-21T09:02:57.835Z,25.66
2019-03-21T09:05:26.727Z,25.83
2019-03-21T09:08:01.190Z,26.35
2019-03-21T09:10:29.900Z,25.05
2019-03-21T09:12:58.659Z,25.71
2019-03-21T09:15:27.388Z,25.21
2019-03-21T09:17:56.296Z,25.83
2019-03-21T09:20:25.106Z,27.45
2019-03-21T09:22:53.587Z,27.87
2019-03-21T09:25:22.303Z,27.68
2019-03-21T09:28:01.961Z,25.94
2019-03-21T09:30:21.368Z,24.39
2019-03-21T09:32:50.193Z,25.20
2019-03-21T09:35:20.456Z,25.92
2019-03-21T09:37:49.185Z,26.33
2019-03-21T09:40:17.995Z,26.17
2019-03-21T09:42:49.662Z,26.51
2019-03-21T09:45:18.420Z,27.20
2019-03-21T09:47:47.091Z,27.55
2019-03-21T09:50:24.402Z,27.81
2019-03-21T09:52:52.970Z,28.31
2019-03-21T09:55:21.546Z,30.15
2019-03-21T09:57:50.092Z,30.81
2019-03-21T10:00:24.347Z,28.90
2019-03-21T10:02:52.859Z,30.21
2019-03-21T10:05:21.547Z,30.39
2019-03-21T10:07:50.093Z,29.96
2019-03-21T10:10:27.118Z,30.32
2019-03-21T10:12:55.752Z,31.04
2019-03-21T10:15:24.298Z,28.82
2019-03-21T10:17:55.984Z,29.50
2019-03-21T10:20:24.671Z,29.77
2019-03-21T10:22:53.154Z,29.69
2019-03-21T10:25:21.733Z,30.54
2019-03-21T10:27:50.274Z,31.86
2019-03-21T10:30:33.799Z,33.05
2019-03-21T10:33:02.789Z,32.10
2019-03-21T10:35:32.630Z,33.12
2019-03-21T10:38:01.614Z,34.50
2019-03-21T10:40:35.146Z,34.51
2019-03-21T10:43:10.662Z,34.43
2019-03-21T10:45:40.045Z,33.43
2019-03-21T10:48:08.821Z,33.13
2019-03-21T10:50:39.227Z,33.09
2019-03-21T10:53:08.378Z,32.18
2019-03-21T10:55:37.475Z,32.62
2019-03-21T10:58:07.039Z,29.45
2019-03-21T11:00:35.850Z,29.32
2019-03-21T11:03:05.114Z,29.17
2019-03-21T11:05:33.736Z,30.51
2019-03-21T11:08:03.843Z,30.89
2019-03-21T11:10:32.625Z,30.43
2019-03-21T11:13:01.313Z,28.97
2019-03-21T11:15:30.094Z,27.94
2019-03-21T11:17:59.016Z,29.25
2019-03-21T11:20:30.149Z,29.15
2019-03-21T11:22:58.795Z,31.34
2019-03-21T11:25:27.497Z,32.34
2019-03-21T11:27:56.318Z,32.19
2019-03-21T11:30:38.639Z,31.36
2019-03-21T11:33:07.313Z,32.95
2019-03-21T11:35:36.149Z,31.26
2019-03-21T11:38:05.629Z,32.61
2019-03-21T11:40:34.273Z,34.03
2019-03-21T11:43:04.834Z,33.89
2019-03-21T11:45:35.211Z,35.05
2019-03-21T11:48:04.089Z,33.71
2019-03-21T11:50:33.545Z,31.74
2019-03-21T11:53:03.061Z,32.21
2019-03-21T11:55:31.663Z,33.26
2019-03-21T11:58:11.155Z,33.66
2019-03-21T12:00:43.909Z,34.12
2019-03-21T12:03:15.167Z,34.08
2019-03-21T12:05:43.966Z,31.22
2019-03-21T12:08:14.153Z,30.95
2019-03-21T12:10:44.339Z,30.92
2019-03-21T12:13:17.974Z,31.09
2019-03-21T12:15:46.991Z,33.39
2019-03-21T12:18:16.172Z,34.25
2019-03-21T12:20:50.405Z,34.04
2019-03-21T12:23:19.401Z,32.86
2019-03-21T12:25:48.242Z,32.14
2019-03-21T12:28:16.985Z,32.43
2019-03-21T12:30:45.843Z,32.01
2019-03-21T12:33:16.072Z,32.21
2019-03-21T12:35:44.778Z,31.38
2019-03-21T12:38:13.909Z,31.57
2019-03-21T12:40:43.004Z,33.00
2019-03-21T12:43:11.833Z,35.34
2019-03-21T12:45:41.932Z,32.48
2019-03-21T12:48:10.813Z,31.53
2019-03-21T12:50:39.547Z,30.93
2019-03-21T12:53:09.910Z,33.44
2019-03-21T12:55:38.643Z,34.46
2019-03-21T12:58:07.505Z,33.72
2019-03-21T13:00:41.483Z,32.60
2019-03-21T13:03:10.159Z,29.95
2019-03-21T13:05:38.798Z,27.74
2019-03-21T13:08:07.556Z,26.82
2019-03-21T13:10:36.288Z,25.58
2019-03-21T13:13:05.563Z,25.17
2019-03-21T13:15:34.308Z,24.60
2019-03-21T13:18:02.879Z,25.63
2019-03-21T13:20:31.959Z,25.81
2019-03-21T13:23:03.577Z,25.15
2019-03-21T13:25:32.333Z,25.17
2019-03-21T13:28:01.102Z,24.57
2019-03-21T13:30:29.813Z,24.78
2019-03-21T13:32:58.400Z,23.99
2019-03-21T13:35:32.761Z,23.39
2019-03-21T13:37:57.659Z,23.15
2019-03-21T13:40:26.412Z,22.69
2019-03-21T13:42:58.026Z,22.51
2019-03-21T13:45:29.883Z,22.20
2019-03-21T13:47:58.595Z,21.58
2019-03-21T13:50:27.331Z,21.72
2019-03-21T13:53:04.700Z,21.78
2019-03-21T13:55:27.927Z,21.52
2019-03-21T13:57:56.692Z,21.82
2019-03-21T14:00:25.511Z,21.58
2019-03-21T14:02:54.214Z,21.51
2019-03-21T14:05:23.090Z,20.86
2019-03-21T14:07:51.805Z,21.38
2019-03-21T14:10:23.299Z,21.23
2019-03-21T14:12:52.013Z,21.33
2019-03-21T14:15:20.771Z,20.67
2019-03-21T14:17:49.613Z,20.47
2019-03-21T14:20:18.393Z,20.55
2019-03-21T14:22:47.600Z,20.35
2019-03-21T14:25:16.237Z,19.73
2019-03-21T14:27:53.433Z,19.69
2019-03-21T14:30:22.052Z,19.58
2019-03-21T14:32:50.699Z,19.57
2019-03-21T14:35:19.334Z,20.01
2019-03-21T14:37:47.942Z,19.58
2019-03-21T14:40:17.628Z,19.32
2019-03-21T14:42:46.500Z,18.94
2019-03-21T14:45:16.670Z,19.37
2019-03-21T14:47:45.340Z,20.56
2019-03-21T14:50:16.259Z,20.60
2019-03-21T14:52:44.889Z,21.00
2019-03-21T14:55:17.561Z,21.14
2019-03-21T14:57:46.128Z,20.84
2019-03-21T15:00:20.069Z,21.11
2019-03-21T15:02:48.628Z,21.37
2019-03-21T15:05:17.717Z,22.23
2019-03-21T15:07:46.349Z,22.20
2019-03-21T15:10:18.659Z,22.09
2019-03-21T15:12:47.294Z,22.45
2019-03-21T15:15:19.468Z,22.24
2019-03-21T15:17:48.112Z,21.61
2019-03-21T15:20:17.490Z,21.56
2019-03-21T15:22:46.130Z,22.13
2019-03-21T15:25:14.818Z,21.84
2019-03-21T15:27:43.457Z,20.80
2019-03-21T15:30:20.037Z,19.52
2019-03-21T15:32:48.746Z,19.63
2019-03-21T15:35:18.247Z,18.88
2019-03-21T15:37:46.924Z,19.41
2019-03-21T15:40:21.845Z,18.90
2019-03-21T15:42:50.379Z,18.93
2019-03-21T15:45:23.743Z,18.88
2019-03-21T15:47:49.444Z,18.72
2019-03-21T15:50:38.486Z,18.39
2019-03-21T15:53:07.467Z,17.63
2019-03-21T15:55:36.139Z,16.96
2019-03-21T15:58:04.886Z,16.94
2019-03-21T16:00:36.202Z,16.19
2019-03-21T16:03:09.601Z,16.19
2019-03-21T16:05:38.886Z,16.25
2019-03-21T16:08:09.113Z,16.10
2019-03-21T16:10:38.450Z,16.05
2019-03-21T16:13:07.177Z,16.00
2019-03-21T16:15:35.743Z,15.96
2019-03-21T16:18:04.783Z,15.87
2019-03-21T16:20:33.394Z,15.87
2019-03-21T16:23:02.138Z,15.78
2019-03-21T16:25:30.747Z,15.65
2019-03-21T16:27:59.314Z,15.59
2019-03-21T16:30:27.994Z,15.59
2019-03-21T16:32:56.632Z,15.42
2019-03-21T16:35:25.200Z,15.35
2019-03-21T16:37:53.831Z,15.21
2019-03-21T16:40:25.290Z,15.13
2019-03-21T16:42:53.968Z,15.01
2019-03-21T16:45:22.582Z,15.02
2019-03-21T16:47:51.140Z,14.86
2019-03-21T16:50:19.710Z,14.75
2019-03-21T16:52:48.322Z,14.65
2019-03-21T16:55:16.876Z,14.72
2019-03-21T16:57:45.543Z,14.66
2019-03-21T17:00:17.835Z,14.53
2019-03-21T17:02:46.855Z,14.49
2019-03-21T17:05:15.495Z,14.48
2019-03-21T17:07:44.233Z,14.52
2019-03-21T17:10:16.730Z,14.47
2019-03-21T17:12:45.384Z,14.27
2019-03-21T17:15:14.381Z,14.23
2019-03-21T17:17:42.958Z,14.28
2019-03-21T17:20:13.459Z,14.23
2019-03-21T17:22:42.099Z,14.24
2019-03-21T17:25:11.962Z,14.22
2019-03-21T17:27:40.643Z,14.17
2019-03-21T17:30:11.851Z,14.19
2019-03-21T17:32:42.099Z,14.15
2019-03-21T17:35:11.972Z,14.02
2019-03-21T17:37:43.843Z,14.10
2019-03-21T17:40:16.206Z,14.06
2019-03-21T17:42:47.727Z,14.07
2019-03-21T17:45:20.968Z,13.85
2019-03-21T17:47:49.600Z,13.88
2019-03-21T17:50:19.180Z,13.88
2019-03-21T17:52:47.921Z,13.79
2019-03-21T17:55:16.571Z,13.81
2019-03-21T17:57:48.170Z,13.73
2019-03-21T18:00:27.327Z,13.80
2019-03-21T18:02:59.136Z,13.61
2019-03-21T18:05:27.754Z,13.64
2019-03-21T18:07:56.417Z,13.56
2019-03-21T18:10:27.680Z,13.55
2019-03-21T18:12:56.360Z,13.56
2019-03-21T18:15:25.197Z,13.49
2019-03-21T18:17:53.776Z,13.53
2019-03-21T18:20:22.471Z,13.51
2019-03-21T18:22:51.163Z,13.43
2019-03-21T18:25:19.800Z,13.39
2019-03-21T18:27:48.801Z,13.40
2019-03-21T18:30:17.566Z,13.31
2019-03-21T18:32:46.196Z,13.36
2019-03-21T18:35:14.983Z,13.37
2019-03-21T18:37:44.028Z,13.37
2019-03-21T18:40:13.014Z,13.40
2019-03-21T18:42:41.657Z,13.46
2019-03-21T18:45:13.285Z,13.46
2019-03-21T18:47:41.922Z,13.43
2019-03-21T18:50:13.475Z,13.32
2019-03-21T18:52:42.031Z,13.24
2019-03-21T18:55:10.820Z,13.15
2019-03-21T18:57:39.461Z,13.15
2019-03-21T19:00:11.573Z,13.13
2019-03-21T19:02:42.894Z,13.19
2019-03-21T19:05:11.846Z,13.04
2019-03-21T19:07:40.463Z,12.96
2019-03-21T19:10:12.005Z,12.90
2019-03-21T19:12:40.686Z,12.90
2019-03-21T19:15:14.908Z,12.94
2019-03-21T19:17:43.558Z,13.09
2019-03-21T19:20:14.604Z,13.04
2019-03-21T19:22:43.243Z,13.08
2019-03-21T19:25:18.324Z,13.11
2019-03-21T19:27:42.957Z,13.06
2019-03-21T19:30:21.554Z,13.06
2019-03-21T19:32:50.190Z,13.02
2019-03-21T19:35:18.826Z,13.00
2019-03-21T19:37:47.559Z,13.01
2019-03-21T19:40:20.263Z,12.95
2019-03-21T19:42:48.968Z,12.91
2019-03-21T19:45:21.013Z,12.94
2019-03-21T19:47:49.669Z,12.93
2019-03-21T19:50:19.638Z,12.96
2019-03-21T19:52:48.464Z,12.95
2019-03-21T19:55:30.354Z,12.87
2019-03-21T19:57:50.761Z,12.81
2019-03-21T20:00:23.806Z,12.79
2019-03-21T20:02:52.457Z,12.79
2019-03-21T20:05:21.150Z,12.65
2019-03-21T20:07:49.837Z,12.55
2019-03-21T20:10:20.470Z,12.46
2019-03-21T20:12:49.334Z,12.38
2019-03-21T20:15:18.771Z,12.29
2019-03-21T20:17:47.453Z,12.27
2019-03-21T20:20:17.952Z,12.22
2019-03-21T20:22:46.680Z,12.15
2019-03-21T20:25:15.571Z,12.04
2019-03-21T20:27:44.473Z,12.04
2019-03-21T20:30:20.516Z,12.02
2019-03-21T20:32:49.157Z,11.89
2019-03-21T20:35:17.894Z,11.79
2019-03-21T20:37:46.583Z,11.74
2019-03-21T20:40:17.181Z,11.75
2019-03-21T20:42:45.739Z,11.68
2019-03-21T20:45:19.447Z,11.60
2019-03-21T20:47:48.095Z,11.50
2019-03-21T20:50:18.148Z,11.53
2019-03-21T20:52:46.706Z,11.45
2019-03-21T20:55:15.392Z,11.56
2019-03-21T20:57:43.957Z,11.57
2019-03-21T21:00:21.704Z,11.53
2019-03-21T21:02:50.801Z,11.55
2019-03-21T21:05:19.433Z,11.59
2019-03-21T21:07:48.068Z,11.49
2019-03-21T21:10:17.159Z,11.39
2019-03-21T21:12:45.797Z,11.26
2019-03-21T21:15:15.932Z,11.22
2019-03-21T21:17:44.715Z,11.30
2019-03-21T21:20:15.955Z,11.25
2019-03-21T21:22:47.383Z,11.02
2019-03-21T21:25:16.049Z,11.04
2019-03-21T21:27:49.748Z,10.86
2019-03-21T21:30:20.710Z,10.78
2019-03-21T21:32:49.284Z,10.76
2019-03-21T21:35:18.058Z,10.67
2019-03-21T21:37:47.341Z,10.59
2019-03-21T21:40:17.187Z,10.38
2019-03-21T21:42:46.060Z,10.33
2019-03-21T21:45:17.308Z,10.30
2019-03-21T21:47:46.323Z,10.37
2019-03-21T21:50:18.578Z,10.33
2019-03-21T21:52:47.276Z,10.47
2019-03-21T21:55:15.919Z,10.59
2019-03-21T21:57:44.559Z,10.56
2019-03-21T22:00:16.213Z,10.60
2019-03-21T22:02:44.860Z,10.61
2019-03-21T22:05:13.778Z,10.62
2019-03-21T22:07:42.403Z,10.79
2019-03-21T22:10:11.086Z,10.98
2019-03-21T22:12:39.731Z,10.96
2019-03-21T22:15:13.588Z,10.88
2019-03-21T22:17:42.262Z,10.70
2019-03-21T22:20:13.065Z,10.76
2019-03-21T22:22:41.716Z,10.73
2019-03-21T22:25:10.649Z,10.71
2019-03-21T22:27:39.333Z,10.67
2019-03-21T22:30:15.706Z,10.51
2019-03-21T22:32:44.388Z,10.37
2019-03-21T22:35:13.029Z,10.23
2019-03-21T22:37:41.680Z,10.19
2019-03-21T22:40:12.531Z,9.99
2019-03-21T22:42:41.116Z,9.92
2019-03-21T22:45:12.184Z,9.80
2019-03-21T22:47:40.758Z,9.77
2019-03-21T22:50:11.734Z,9.69
2019-03-21T22:52:40.379Z,9.58
2019-03-21T22:55:09.056Z,9.44
2019-03-21T22:57:37.680Z,9.27
2019-03-21T23:00:22.247Z,9.08
2019-03-21T23:02:50.882Z,8.93
2019-03-21T23:05:20.862Z,8.93
2019-03-21T23:07:49.424Z,8.91
2019-03-21T23:10:18.199Z,8.87
2019-03-21T23:12:46.758Z,8.57
2019-03-21T23:15:15.535Z,8.58
2019-03-21T23:17:44.262Z,8.59
2019-03-21T23:20:15.132Z,8.52
2019-03-21T23:22:43.810Z,8.43
2019-03-21T23:25:16.276Z,8.42
2019-03-21T23:27:44.013Z,8.65
2019-03-21T23:30:19.728Z,8.78
2019-03-21T23:32:48.337Z,8.85
2019-03-21T23:35:17.009Z,9.01
2019-03-21T23:37:45.649Z,9.05
2019-03-21T23:40:15.624Z,9.05
2019-03-21T23:42:44.458Z,8.99
2019-03-21T23:45:19.853Z,8.93
2019-03-21T23:47:47.724Z,8.81
2019-03-21T23:50:20.066Z,8.50
2019-03-21T23:52:48.751Z,8.43
2019-03-21T23:55:17.301Z,8.26
2019-03-21T23:57:45.868Z,8.10
